Time;durP1;ratioP1;P1;durP2;ratioP2;P2;SDS_P1;SDS_P2;PMS_P1;PMS_P2;Temp;Humidity;BMP_temperature;BMP_pressure;BME280_temperature;BME280_humidity;BME280_pressure;Samples;Min_cycle;Max_cycle;Signal;HPM_P1;HPM_P2
2022/07/22 00:00:50;;;;;;;9.47;4.00;;;14.80;99.90;;;;;;5058476;28;20228;-55
2022/07/22 00:03:18;;;;;;;12.30;4.60;;;14.80;99.90;;;;;;5069747;28;20192;-55
2022/07/22 00:05:46;;;;;;;10.83;4.63;;;14.80;99.90;;;;;;5056456;28;20270;-55
2022/07/22 00:08:15;;;;;;;8.87;3.93;;;14.70;99.90;;;;;;5074890;28;20279;-55
2022/07/22 00:10:46;;;;;;;11.60;4.67;;;14.70;99.90;;;;;;5075885;28;20223;-55
2022/07/22 00:13:15;;;;;;;7.43;3.67;;;14.70;99.90;;;;;;5074881;28;20277;-55
2022/07/22 00:15:44;;;;;;;8.73;3.90;;;14.70;99.90;;;;;;5076018;28;20180;-55
2022/07/22 00:18:13;;;;;;;5.63;3.93;;;14.60;99.90;;;;;;5075195;28;20298;-56
2022/07/22 00:20:42;;;;;;;8.40;3.60;;;14.50;99.90;;;;;;5076592;28;20278;-55
2022/07/22 00:23:11;;;;;;;12.07;4.30;;;14.50;99.90;;;;;;5075902;28;20656;-55
2022/07/22 00:25:39;;;;;;;6.43;3.80;;;14.40;99.90;;;;;;5076472;28;20212;-55
2022/07/22 00:28:08;;;;;;;26.50;4.37;;;14.30;99.90;;;;;;5065619;28;20199;-55
2022/07/22 00:30:38;;;;;;;8.23;4.30;;;14.30;99.90;;;;;;5069104;28;20280;-55
2022/07/22 00:33:06;;;;;;;9.50;4.30;;;14.30;99.90;;;;;;5083655;28;20239;-56
2022/07/22 00:35:34;;;;;;;8.17;3.37;;;14.20;99.90;;;;;;5072238;28;20271;-55
2022/07/22 00:38:10;;;;;;;6.50;4.13;;;14.20;99.90;;;;;;5065995;28;20261;-56
2022/07/22 00:40:38;;;;;;;7.07;4.10;;;14.20;99.90;;;;;;5060571;28;20196;-55
2022/07/22 00:43:07;;;;;;;9.20;4.07;;;14.10;99.90;;;;;;5075293;28;20206;-55
2022/07/22 00:45:37;;;;;;;7.80;4.80;;;14.10;99.90;;;;;;5075595;28;20204;-56
2022/07/22 00:48:06;;;;;;;7.40;4.13;;;14.10;99.90;;;;;;5075744;28;20219;-56
2022/07/22 00:50:36;;;;;;;4.80;3.97;;;14.10;99.90;;;;;;5075202;28;20238;-56
2022/07/22 00:53:05;;;;;;;8.23;4.40;;;14.00;99.90;;;;;;5072178;28;20198;-55
2022/07/22 00:55:34;;;;;;;9.93;4.10;;;14.00;99.90;;;;;;5067767;28;20208;-56
2022/07/22 00:58:04;;;;;;;12.33;4.33;;;14.00;99.90;;;;;;5057202;28;20204;-55
2022/07/22 01:00:32;;;;;;;9.33;4.50;;;14.00;99.90;;;;;;5075093;28;20189;-56
2022/07/22 01:03:02;;;;;;;4.43;4.03;;;13.90;99.90;;;;;;5070882;28;20220;-56
2022/07/22 01:05:31;;;;;;;12.27;4.17;;;13.90;99.90;;;;;;5059393;28;20228;-55
2022/07/22 01:08:05;;;;;;;6.50;3.87;;;13.90;99.90;;;;;;5069157;28;20234;-56
2022/07/22 01:10:34;;;;;;;5.63;3.70;;;13.90;99.90;;;;;;5075816;28;20196;-56
2022/07/22 01:13:02;;;;;;;7.33;3.93;;;13.90;99.90;;;;;;5075938;28;20235;-56
2022/07/22 01:15:33;;;;;;;5.93;3.60;;;13.80;99.90;;;;;;5075626;28;20723;-55
2022/07/22 01:18:04;;;;;;;8.50;4.03;;;13.70;99.90;;;;;;5075640;28;20557;-54
2022/07/22 01:20:35;;;;;;;4.53;4.03;;;13.70;99.90;;;;;;5075306;28;20216;-55
2022/07/22 01:23:03;;;;;;;7.33;4.07;;;13.60;99.90;;;;;;5073626;28;20600;-56
2022/07/22 01:25:32;;;;;;;9.90;4.40;;;13.70;99.90;;;;;;5075591;28;20640;-56
2022/07/22 01:28:03;;;;;;;9.60;4.30;;;13.70;99.90;;;;;;5075640;28;20644;-54
2022/07/22 01:30:32;;;;;;;9.53;4.43;;;13.70;99.90;;;;;;5074498;28;20231;-55
2022/07/22 01:33:00;;;;;;;8.67;4.00;;;13.70;99.90;;;;;;5074730;28;20632;-56
2022/07/22 01:35:29;;;;;;;6.97;3.83;;;13.70;99.90;;;;;;5074297;28;20220;-56
2022/07/22 01:37:58;;;;;;;10.57;3.97;;;13.60;99.90;;;;;;5074103;28;20271;-55
2022/07/22 01:40:27;;;;;;;9.33;3.80;;;13.60;99.90;;;;;;5074480;28;20202;-54
2022/07/22 01:42:56;;;;;;;12.30;4.37;;;13.50;99.90;;;;;;5072733;28;20204;-56
2022/07/22 01:45:24;;;;;;;8.10;4.50;;;13.50;99.90;;;;;;5073924;28;20227;-55
2022/07/22 01:47:53;;;;;;;5.47;4.67;;;13.50;99.90;;;;;;5074104;28;20294;-55
2022/07/22 01:50:21;;;;;;;7.57;4.13;;;13.50;99.90;;;;;;5072470;28;20200;-55
2022/07/22 01:52:50;;;;;;;9.23;4.57;;;13.50;99.90;;;;;;5072263;28;20199;-56
2022/07/22 01:55:20;;;;;;;7.40;4.07;;;13.50;99.90;;;;;;5105814;28;20194;-56
2022/07/22 01:57:49;;;;;;;5.00;4.20;;;13.50;99.90;;;;;;5071876;28;20224;-55
2022/07/22 02:00:18;;;;;;;7.97;4.37;;;13.50;99.90;;;;;;5074696;28;20279;-56
2022/07/22 02:03:06;;;;;;;5.07;4.07;;;13.50;99.90;;;;;;5071514;28;20192;-55
2022/07/22 02:05:34;;;;;;;6.90;3.87;;;13.50;99.90;;;;;;5074591;28;20188;-56
2022/07/22 02:08:05;;;;;;;5.07;3.80;;;13.50;99.90;;;;;;5071316;28;20230;-56
2022/07/22 02:10:36;;;;;;;10.73;4.30;;;13.50;99.90;;;;;;5073262;28;20227;-54
2022/07/22 02:13:05;;;;;;;6.73;3.73;;;13.40;99.90;;;;;;5068883;28;20227;-55
2022/07/22 02:15:34;;;;;;;3.97;3.43;;;13.40;99.90;;;;;;5073841;28;20218;-56
2022/07/22 02:18:11;;;;;;;6.90;3.90;;;13.40;99.90;;;;;;5074221;28;20200;-55
2022/07/22 02:20:40;;;;;;;10.17;4.27;;;13.30;99.90;;;;;;5074529;28;20544;-56
2022/07/22 02:23:10;;;;;;;6.60;4.80;;;13.30;99.90;;;;;;5073242;28;20203;-56
2022/07/22 02:25:41;;;;;;;10.97;5.40;;;13.30;99.90;;;;;;5074352;28;20713;-55
2022/07/22 02:28:10;;;;;;;8.80;5.20;;;13.30;99.90;;;;;;5073982;28;20746;-56
2022/07/22 02:30:39;;;;;;;9.67;4.87;;;13.30;99.90;;;;;;5067169;28;20276;-56
2022/07/22 02:33:08;;;;;;;4.90;4.57;;;13.30;99.90;;;;;;5073564;28;20201;-55
2022/07/22 02:35:37;;;;;;;6.20;5.00;;;13.20;99.90;;;;;;5060209;28;20647;-56
2022/07/22 02:38:10;;;;;;;9.17;5.37;;;13.20;99.90;;;;;;5073790;28;20274;-55
2022/07/22 02:40:40;;;;;;;9.80;5.13;;;13.20;99.90;;;;;;5073796;28;20220;-55
2022/07/22 02:43:08;;;;;;;10.87;5.17;;;13.20;99.90;;;;;;5073671;28;20573;-55
2022/07/22 02:45:37;;;;;;;10.07;4.97;;;13.20;99.90;;;;;;5072191;28;20702;-55
2022/07/22 02:48:06;;;;;;;9.53;5.10;;;13.10;99.90;;;;;;5104632;28;20239;-56
2022/07/22 02:50:35;;;;;;;15.07;5.60;;;13.10;99.90;;;;;;5068429;28;20204;-55
2022/07/22 02:53:04;;;;;;;11.47;5.17;;;13.00;99.90;;;;;;5069433;28;20290;-56
2022/07/22 02:55:33;;;;;;;8.30;5.07;;;13.00;99.90;;;;;;5073780;28;20200;-56
2022/07/22 02:58:07;;;;;;;9.63;5.27;;;13.00;99.90;;;;;;5073585;28;20280;-56
2022/07/22 03:00:37;;;;;;;7.10;5.50;;;13.00;99.90;;;;;;5071534;28;20196;-57
2022/07/22 03:06:36;;;;;;;6.47;4.90;;;13.00;99.90;;;;;;5072810;28;20269;-55
2022/07/22 03:09:09;;;;;;;6.20;5.23;;;13.00;99.90;;;;;;5073210;28;20208;-55
2022/07/22 03:11:38;;;;;;;9.07;4.83;;;13.00;99.90;;;;;;5073390;28;20280;-56
2022/07/22 03:14:08;;;;;;;9.43;5.23;;;13.00;99.90;;;;;;5072369;28;20192;-54
2022/07/22 03:16:36;;;;;;;11.67;6.13;;;13.00;99.90;;;;;;5066694;28;20227;-56
2022/07/22 03:19:05;;;;;;;6.67;5.10;;;13.10;99.90;;;;;;5071920;28;20231;-54
2022/07/22 03:21:33;;;;;;;7.13;4.93;;;13.20;99.90;;;;;;5073351;28;20191;-55
2022/07/22 03:24:02;;;;;;;6.53;4.93;;;13.20;99.90;;;;;;5073306;28;20196;-56
2022/07/22 03:26:31;;;;;;;5.10;4.67;;;13.20;99.90;;;;;;5073094;28;20200;-55
2022/07/22 03:29:00;;;;;;;6.70;5.00;;;13.20;99.90;;;;;;5072341;28;20216;-55
2022/07/22 03:31:30;;;;;;;11.10;4.97;;;13.20;99.90;;;;;;5073229;28;20192;-55
2022/07/22 03:34:00;;;;;;;12.47;5.03;;;13.30;99.90;;;;;;5062149;28;20250;-56
2022/07/22 03:36:29;;;;;;;11.23;5.43;;;13.30;99.90;;;;;;5073487;28;20650;-56
2022/07/22 03:38:58;;;;;;;13.23;5.97;;;13.40;99.90;;;;;;5066966;28;20189;-54
2022/07/22 03:41:27;;;;;;;15.43;5.37;;;13.40;99.90;;;;;;5060950;28;20253;-55
2022/07/22 03:43:56;;;;;;;12.50;5.77;;;13.40;99.90;;;;;;5064709;28;20189;-54
2022/07/22 03:46:24;;;;;;;10.27;5.13;;;13.50;99.90;;;;;;5059023;28;20602;-55
2022/07/22 03:48:54;;;;;;;9.50;4.77;;;13.50;99.90;;;;;;5072112;28;20832;-56
2022/07/22 03:51:23;;;;;;;8.67;4.90;;;13.60;99.90;;;;;;5072647;28;20192;-56
2022/07/22 03:53:52;;;;;;;8.43;5.43;;;13.60;99.90;;;;;;5058219;28;20196;-56
2022/07/22 03:56:21;;;;;;;10.97;5.47;;;13.60;99.90;;;;;;5070665;28;20196;-51
2022/07/22 03:58:49;;;;;;;7.53;5.23;;;13.60;99.90;;;;;;5072799;28;20652;-56
2022/07/22 04:01:17;;;;;;;10.30;5.70;;;13.70;99.90;;;;;;5068415;28;20283;-55
2022/07/22 04:04:04;;;;;;;10.47;6.00;;;13.80;99.90;;;;;;5071784;28;20330;-56
2022/07/22 04:06:32;;;;;;;12.43;6.67;;;13.80;99.90;;;;;;5071183;28;20318;-54
2022/07/22 04:09:02;;;;;;;13.03;6.30;;;13.90;99.90;;;;;;5075133;28;20239;-54
2022/07/22 04:11:31;;;;;;;11.00;5.87;;;14.00;99.90;;;;;;5091813;28;20546;-56
2022/07/22 04:14:00;;;;;;;13.50;5.93;;;13.90;99.90;;;;;;5082857;28;20200;-56
2022/07/22 04:16:28;;;;;;;8.47;5.93;;;14.00;99.90;;;;;;5071211;28;20216;-56
2022/07/22 04:18:57;;;;;;;12.67;6.40;;;14.10;99.90;;;;;;5072108;28;20250;-56
2022/07/22 04:21:28;;;;;;;11.40;5.83;;;14.10;99.90;;;;;;5068687;28;20196;-56
2022/07/22 04:23:56;;;;;;;13.40;5.57;;;14.20;99.90;;;;;;5066461;28;20258;-56
2022/07/22 04:26:29;;;;;;;9.50;5.50;;;14.30;99.90;;;;;;5072110;28;20200;-56
2022/07/22 04:28:58;;;;;;;10.43;5.50;;;14.30;99.90;;;;;;5070511;28;20239;-56
2022/07/22 04:31:27;;;;;;;7.80;5.77;;;14.40;99.90;;;;;;5072122;28;20263;-55
2022/07/22 04:33:55;;;;;;;14.43;6.67;;;14.50;99.90;;;;;;5072182;28;20200;-55
2022/07/22 04:36:28;;;;;;;10.07;5.67;;;14.50;99.90;;;;;;5104814;28;20302;-56
2022/07/22 04:39:33;;;;;;;9.10;5.37;;;14.50;99.90;;;;;;5072432;28;20263;-56
2022/07/22 04:42:02;;;;;;;10.37;5.73;;;14.60;99.90;;;;;;5068222;28;20216;-56
2022/07/22 04:44:30;;;;;;;11.20;5.70;;;14.60;99.90;;;;;;5061673;28;20243;-55
2022/07/22 04:46:58;;;;;;;13.87;5.90;;;14.70;99.90;;;;;;5072808;28;20200;-56
2022/07/22 04:49:35;;;;;;;13.93;5.73;;;14.80;99.90;;;;;;5055371;28;20235;-54
2022/07/22 04:52:06;;;;;;;14.70;5.97;;;14.80;99.90;;;;;;5076017;28;20194;-54
2022/07/22 04:54:36;;;;;;;7.87;5.67;;;14.90;99.90;;;;;;5076124;28;20203;-56
2022/07/22 04:57:06;;;;;;;8.67;5.27;;;15.00;99.90;;;;;;5075562;28;20239;-53
2022/07/22 04:59:34;;;;;;;10.83;5.60;;;15.00;99.90;;;;;;5074367;28;20555;-55
2022/07/22 05:02:03;;;;;;;6.83;4.73;;;15.10;99.90;;;;;;5071941;28;20217;-54
2022/07/22 05:04:34;;;;;;;9.77;5.00;;;15.10;99.90;;;;;;5071210;28;20215;-55
2022/07/22 05:07:03;;;;;;;9.10;5.40;;;15.20;99.90;;;;;;5072043;28;20580;-55
2022/07/22 05:09:33;;;;;;;11.87;4.77;;;15.30;99.90;;;;;;5060220;28;20439;-55
2022/07/22 05:12:01;;;;;;;9.50;5.10;;;15.30;99.90;;;;;;5061483;28;20607;-56
2022/07/22 05:14:29;;;;;;;8.70;5.10;;;15.40;99.90;;;;;;5077790;28;20206;-54
2022/07/22 05:16:58;;;;;;;8.60;4.70;;;15.50;99.90;;;;;;5075512;28;20203;-56
2022/07/22 05:19:27;;;;;;;8.80;4.80;;;15.60;99.90;;;;;;5075366;28;20194;-56
2022/07/22 05:21:55;;;;;;;7.57;5.27;;;15.70;99.90;;;;;;5063387;28;20280;-55
2022/07/22 05:24:24;;;;;;;8.07;4.83;;;15.80;99.90;;;;;;5072972;28;20196;-56
2022/07/22 05:26:54;;;;;;;10.27;5.10;;;15.80;99.90;;;;;;5104904;28;20204;-56
2022/07/22 05:29:22;;;;;;;12.37;5.43;;;15.90;99.90;;;;;;5071522;28;20662;-55
2022/07/22 05:31:50;;;;;;;8.20;4.93;;;15.90;99.90;;;;;;5107864;28;20286;-55
2022/07/22 05:34:19;;;;;;;9.00;4.90;;;16.00;99.90;;;;;;5066560;28;20198;-56
2022/07/22 05:36:47;;;;;;;8.60;4.97;;;16.10;99.90;;;;;;5065930;28;20192;-56
2022/07/22 05:39:16;;;;;;;7.93;5.03;;;16.20;99.90;;;;;;5066064;28;20192;-56
2022/07/22 05:41:44;;;;;;;11.50;5.00;;;16.20;99.90;;;;;;5075040;28;20246;-56
2022/07/22 05:44:14;;;;;;;8.47;4.80;;;16.20;99.90;;;;;;5073302;28;20729;-57
2022/07/22 05:46:43;;;;;;;10.50;4.90;;;16.30;99.90;;;;;;5074680;28;20288;-56
2022/07/22 05:49:14;;;;;;;9.13;5.00;;;16.30;99.90;;;;;;5104526;28;20642;-56
2022/07/22 05:51:42;;;;;;;15.47;5.10;;;16.40;99.90;;;;;;5073946;28;20600;-55
2022/07/22 05:54:10;;;;;;;9.80;4.90;;;16.50;99.90;;;;;;5072415;28;20551;-56
2022/07/22 05:56:39;;;;;;;14.60;5.63;;;16.70;99.90;;;;;;5074897;28;20539;-56
2022/07/22 05:59:07;;;;;;;12.80;5.10;;;16.80;99.90;;;;;;5073184;28;20640;-56
2022/07/22 06:01:37;;;;;;;10.80;5.20;;;16.90;99.90;;;;;;5069396;28;20242;-56
2022/07/22 06:04:06;;;;;;;9.97;5.23;;;17.00;99.90;;;;;;5066902;28;20652;-54
2022/07/22 06:06:34;;;;;;;11.50;5.30;;;17.00;99.90;;;;;;5064455;28;20250;-56
2022/07/22 06:09:03;;;;;;;10.23;4.90;;;17.10;99.90;;;;;;5056734;28;20639;-56
2022/07/22 06:11:31;;;;;;;8.10;4.70;;;17.30;99.90;;;;;;5073260;28;20286;-55
2022/07/22 06:13:59;;;;;;;9.83;5.00;;;17.50;99.90;;;;;;5066839;28;20204;-56
2022/07/22 06:16:28;;;;;;;10.47;4.97;;;17.70;99.90;;;;;;5074116;28;20224;-56
2022/07/22 06:18:58;;;;;;;15.73;5.30;;;17.90;99.90;;;;;;5074134;28;20198;-56
2022/07/22 06:21:27;;;;;;;8.23;4.53;;;18.10;99.90;;;;;;5067087;28;20254;-57
2022/07/22 06:23:55;;;;;;;17.77;5.50;;;18.30;99.90;;;;;;5074011;28;20200;-57
2022/07/22 06:26:24;;;;;;;14.70;5.10;;;18.30;99.90;;;;;;5064755;28;20288;-56
2022/07/22 06:28:52;;;;;;;10.97;4.70;;;18.40;99.90;;;;;;5071417;28;20299;-56
2022/07/22 06:31:21;;;;;;;8.33;4.27;;;18.60;99.90;;;;;;5062760;28;20245;-56
2022/07/22 06:33:50;;;;;;;9.63;4.20;;;18.90;99.90;;;;;;5073571;28;20219;-56
2022/07/22 06:36:22;;;;;;;12.53;4.17;;;19.20;99.90;;;;;;5073352;28;20219;-56
2022/07/22 06:38:51;;;;;;;12.13;4.00;;;19.30;99.90;;;;;;5072339;28;20200;-54
2022/07/22 06:41:20;;;;;;;7.73;3.60;;;19.40;99.90;;;;;;5073744;28;20212;-57
2022/07/22 06:43:49;;;;;;;10.37;3.93;;;19.50;99.90;;;;;;5072307;28;20190;-56
2022/07/22 06:46:17;;;;;;;8.73;3.73;;;19.60;99.90;;;;;;5073614;28;20274;-57
2022/07/22 06:48:46;;;;;;;9.67;4.00;;;19.70;99.90;;;;;;5069343;28;20200;-56
2022/07/22 06:51:16;;;;;;;8.07;3.87;;;19.90;99.90;;;;;;5072132;28;20526;-56
2022/07/22 06:53:45;;;;;;;6.57;3.17;;;20.10;99.90;;;;;;5056411;28;20347;-56
2022/07/22 06:56:16;;;;;;;6.67;3.30;;;20.30;99.90;;;;;;5064585;28;20219;-57
2022/07/22 06:58:44;;;;;;;10.90;3.30;;;20.40;99.90;;;;;;5091618;28;20277;-55
2022/07/22 07:01:12;;;;;;;6.17;3.23;;;20.30;99.90;;;;;;5068809;28;20198;-56
2022/07/22 07:03:41;;;;;;;6.17;3.20;;;20.30;99.90;;;;;;5069538;28;20692;-56
2022/07/22 07:06:11;;;;;;;5.70;2.73;;;20.50;99.90;;;;;;5066205;28;20726;-56
2022/07/22 07:08:40;;;;;;;8.83;2.63;;;20.60;99.90;;;;;;5069326;28;20272;-55
2022/07/22 07:11:10;;;;;;;6.33;2.70;;;20.70;99.90;;;;;;5065872;28;20220;-57
2022/07/22 07:13:39;;;;;;;5.33;2.73;;;20.90;99.90;;;;;;5071705;28;20209;-57
2022/07/22 07:16:08;;;;;;;5.93;2.57;;;21.00;99.90;;;;;;5089055;28;20233;-56
2022/07/22 07:18:36;;;;;;;7.23;2.70;;;21.30;99.90;;;;;;5072289;28;20195;-56
2022/07/22 07:21:05;;;;;;;7.10;2.27;;;21.50;99.90;;;;;;5071011;28;20193;-56
2022/07/22 07:23:36;;;;;;;4.77;2.23;;;21.40;99.90;;;;;;5071650;28;20192;-56
2022/07/22 07:26:04;;;;;;;10.00;2.53;;;21.30;99.90;;;;;;5072023;28;20200;-55
2022/07/22 07:28:34;;;;;;;7.30;2.90;;;21.30;99.90;;;;;;5065295;28;20203;-56
2022/07/22 07:31:03;;;;;;;4.40;2.23;;;21.10;99.90;;;;;;5072794;28;20208;-55
2022/07/22 07:33:32;;;;;;;5.20;2.00;;;20.70;99.90;;;;;;5069246;28;20188;-56
2022/07/22 07:36:00;;;;;;;2.90;2.00;;;20.60;99.90;;;;;;5061903;28;20232;-56
2022/07/22 07:38:29;;;;;;;4.40;2.40;;;20.50;99.90;;;;;;5067529;28;20199;-56
2022/07/22 07:40:58;;;;;;;3.33;1.90;;;20.50;99.90;;;;;;5071469;28;20234;-55
2022/07/22 07:43:27;;;;;;;2.93;2.10;;;20.50;99.90;;;;;;5071419;28;20567;-56
2022/07/22 07:45:57;;;;;;;6.43;2.03;;;20.50;99.90;;;;;;5054886;28;20213;-56
2022/07/22 07:48:25;;;;;;;3.97;2.10;;;20.60;99.90;;;;;;5070862;28;20596;-56
2022/07/22 07:50:54;;;;;;;4.63;2.43;;;20.70;99.90;;;;;;5072462;28;20679;-55
2022/07/22 07:53:23;;;;;;;6.83;2.17;;;20.80;99.90;;;;;;5067818;28;20180;-56
2022/07/22 07:55:51;;;;;;;5.57;2.30;;;20.80;99.90;;;;;;5065138;28;20197;-56
2022/07/22 07:58:20;;;;;;;3.23;2.40;;;20.80;99.90;;;;;;5070168;28;20253;-55
2022/07/22 08:00:49;;;;;;;4.80;2.20;;;20.80;99.90;;;;;;5072700;28;20196;-56
2022/07/22 08:03:19;;;;;;;6.73;2.70;;;20.80;99.90;;;;;;5068334;28;20275;-56
2022/07/22 08:05:50;;;;;;;5.37;2.17;;;21.10;99.90;;;;;;5070723;28;20228;-57
2022/07/22 08:08:18;;;;;;;6.73;2.53;;;21.50;99.90;;;;;;5072448;28;20211;-57
2022/07/22 08:10:47;;;;;;;5.87;2.57;;;21.70;99.90;;;;;;5072211;28;20288;-55
2022/07/22 08:13:27;;;;;;;5.33;2.53;;;21.80;99.90;;;;;;5055444;28;20200;-56
2022/07/22 08:15:56;;;;;;;6.50;2.37;;;22.20;99.90;;;;;;5054008;28;20259;-56
2022/07/22 08:18:27;;;;;;;5.57;2.20;;;22.30;99.90;;;;;;5071607;28;20201;-56
2022/07/22 08:20:55;;;;;;;6.40;2.63;;;22.20;99.90;;;;;;5067497;28;20531;-56
2022/07/22 08:23:27;;;;;;;4.00;2.60;;;22.50;99.90;;;;;;5071087;28;20195;-56
2022/07/22 08:25:56;;;;;;;8.60;2.60;;;22.20;99.90;;;;;;5065495;28;20347;-56
2022/07/22 08:28:24;;;;;;;7.83;2.57;;;22.20;99.90;;;;;;5075508;28;20210;-56
2022/07/22 08:30:53;;;;;;;4.30;2.17;;;22.60;99.90;;;;;;5072073;28;20261;-56
2022/07/22 08:33:21;;;;;;;5.33;2.37;;;22.60;99.90;;;;;;5073391;28;20351;-57
2022/07/22 08:35:51;;;;;;;7.00;3.17;;;22.70;99.90;;;;;;5074018;28;20195;-56
2022/07/22 08:38:20;;;;;;;5.83;2.50;;;22.70;99.90;;;;;;5074363;28;20664;-56
2022/07/22 08:40:49;;;;;;;9.40;2.90;;;22.30;99.90;;;;;;5073875;28;20267;-56
2022/07/22 08:43:17;;;;;;;4.60;2.40;;;22.20;99.90;;;;;;5105219;28;20555;-56
2022/07/22 08:45:48;;;;;;;6.10;3.27;;;22.40;99.90;;;;;;5070211;28;20269;-57
2022/07/22 08:48:17;;;;;;;6.00;3.07;;;22.70;99.90;;;;;;5072891;28;20680;-56
2022/07/22 08:50:46;;;;;;;5.40;3.20;;;22.60;99.90;;;;;;5065178;28;20213;-54
2022/07/22 08:53:16;;;;;;;5.93;3.40;;;22.00;99.90;;;;;;5069018;28;20281;-57
2022/07/22 08:55:46;;;;;;;6.83;3.00;;;21.70;99.90;;;;;;5072664;28;20300;-55
2022/07/22 08:58:16;;;;;;;6.17;3.20;;;21.80;99.90;;;;;;5066094;28;20206;-57
2022/07/22 09:00:45;;;;;;;6.63;3.13;;;21.90;99.90;;;;;;5060194;28;20189;-56
2022/07/22 09:03:22;;;;;;;6.03;3.40;;;21.90;99.90;;;;;;5071353;28;20198;-57
2022/07/22 09:05:53;;;;;;;7.77;3.27;;;22.00;99.90;;;;;;5072906;28;20683;-56
2022/07/22 09:08:23;;;;;;;3.93;3.30;;;22.00;99.90;;;;;;5095599;28;20228;-56
2022/07/22 09:10:54;;;;;;;6.20;3.13;;;21.80;99.90;;;;;;5061032;28;20291;-56
2022/07/22 09:13:25;;;;;;;5.03;3.30;;;21.90;99.90;;;;;;5070389;28;20623;-55
2022/07/22 09:15:54;;;;;;;5.07;3.37;;;21.60;99.90;;;;;;5058186;28;20201;-56
2022/07/22 09:18:23;;;;;;;6.20;3.30;;;21.60;99.90;;;;;;5071492;28;20208;-56
2022/07/22 09:20:59;;;;;;;6.03;3.00;;;22.00;99.90;;;;;;5074959;28;20247;-56
2022/07/22 09:23:40;;;;;;;5.67;3.37;;;22.30;99.90;;;;;;5081019;28;20205;-56
2022/07/22 09:26:08;;;;;;;8.13;3.60;;;22.60;99.90;;;;;;5094333;28;20618;-56
2022/07/22 09:28:38;;;;;;;9.33;3.60;;;22.80;99.90;;;;;;5082853;28;20277;-56
2022/07/22 09:31:08;;;;;;;6.80;3.30;;;23.20;99.90;;;;;;5073423;28;20222;-56
2022/07/22 09:33:37;;;;;;;6.83;3.27;;;23.30;99.90;;;;;;5073657;28;20202;-56
2022/07/22 09:36:06;;;;;;;3.67;3.30;;;23.00;99.90;;;;;;5074627;28;20273;-57
2022/07/22 09:38:36;;;;;;;4.67;3.07;;;22.90;99.90;;;;;;5073447;28;20224;-56
2022/07/22 09:41:05;;;;;;;5.13;2.93;;;23.10;99.90;;;;;;5073887;28;20275;-55
2022/07/22 09:43:37;;;;;;;10.27;3.07;;;23.30;99.90;;;;;;5075102;28;20198;-56
2022/07/22 09:46:05;;;;;;;7.13;2.90;;;23.50;99.90;;;;;;5075534;28;20223;-56
2022/07/22 09:48:34;;;;;;;4.63;3.03;;;23.80;99.90;;;;;;5072865;28;20663;-56
2022/07/22 09:51:03;;;;;;;5.00;2.90;;;24.00;99.90;;;;;;5060941;28;20667;-57
2022/07/22 09:53:32;;;;;;;5.90;3.00;;;23.90;99.90;;;;;;5092379;28;20193;-55
2022/07/22 09:56:05;;;;;;;4.40;2.83;;;24.50;99.90;;;;;;5060522;28;20291;-57
2022/07/22 09:58:34;;;;;;;6.50;2.53;;;25.00;99.90;;;;;;5071360;28;20196;-57
2022/07/22 10:01:05;;;;;;;4.23;2.70;;;25.50;99.90;;;;;;5067541;28;20828;-57
2022/07/22 10:04:12;;;;;;;7.77;2.87;;;25.30;99.90;;;;;;5071511;28;20624;-56
2022/07/22 10:07:19;;;;;;;4.67;2.60;;;25.00;99.90;;;;;;5057683;28;20235;-56
2022/07/22 10:09:49;;;;;;;2.72;2.42;;;25.30;99.90;;;;;;5071586;28;20180;-56
2022/07/22 10:12:24;;;;;;;3.43;2.77;;;25.40;99.90;;;;;;5074463;28;20240;-57
2022/07/22 10:15:02;;;;;;;3.70;2.50;;;25.70;99.90;;;;;;5041929;28;20210;-56
2022/07/22 10:17:33;;;;;;;5.07;2.60;;;25.60;99.90;;;;;;5080069;28;20193;-56
2022/07/22 10:20:02;;;;;;;7.23;2.57;;;25.60;99.90;;;;;;5067994;28;20250;-56
2022/07/22 10:22:53;;;;;;;4.37;2.60;;;25.30;99.90;;;;;;5067612;28;20193;-56
2022/07/22 10:25:29;;;;;;;3.87;2.37;;;25.00;99.90;;;;;;5066238;28;20601;-57
2022/07/22 10:28:02;;;;;;;5.73;2.77;;;25.00;99.90;;;;;;5066424;28;20276;-56
2022/07/22 10:30:33;;;;;;;5.03;2.70;;;25.10;99.90;;;;;;5060476;28;20201;-57
2022/07/22 10:33:14;;;;;;;3.33;2.50;;;25.30;99.90;;;;;;5067230;28;20686;-57
2022/07/22 10:35:56;;;;;;;5.37;2.63;;;25.50;99.90;;;;;;5068872;28;20218;-56
2022/07/22 10:38:26;;;;;;;4.03;2.30;;;25.50;99.90;;;;;;5066247;28;20284;-57
2022/07/22 10:40:56;;;;;;;5.05;2.72;;;25.50;99.90;;;;;;5060550;28;20644;-57
2022/07/22 10:43:28;;;;;;;3.30;2.30;;;25.30;99.90;;;;;;5072128;28;20204;-57
2022/07/22 10:45:57;;;;;;;4.83;2.37;;;25.40;99.90;;;;;;5060491;28;20216;-56
2022/07/22 10:48:45;;;;;;;5.40;2.37;;;25.50;99.90;;;;;;5067399;28;20307;-57
2022/07/22 10:51:15;;;;;;;5.10;2.50;;;25.50;99.90;;;;;;5055234;28;20303;-57
2022/07/22 10:53:52;;;;;;;4.22;2.65;;;26.00;99.90;;;;;;5065742;28;20253;-56
2022/07/22 10:56:26;;;;;;;8.05;2.95;;;26.20;99.90;;;;;;5070995;28;20198;-57
2022/07/22 10:59:09;;;;;;;3.67;2.50;;;26.10;99.90;;;;;;5059579;28;20199;-57
2022/07/22 11:01:58;;;;;;;7.20;2.80;;;26.10;99.90;;;;;;5068129;28;20197;-56
2022/07/22 11:04:27;;;;;;;2.63;2.42;;;25.70;99.90;;;;;;5066677;28;20259;-57
2022/07/22 11:06:57;;;;;;;5.13;2.80;;;25.70;99.90;;;;;;5070697;28;20328;-55
2022/07/22 11:09:34;;;;;;;4.00;2.47;;;25.80;99.90;;;;;;5062226;28;20227;-56
2022/07/22 11:12:03;;;;;;;4.33;2.60;;;25.70;99.90;;;;;;5059472;28;20772;-56
2022/07/22 11:14:36;;;;;;;5.73;2.60;;;25.70;99.90;;;;;;5073251;28;20258;-56
2022/07/22 11:17:06;;;;;;;4.70;2.70;;;25.50;99.90;;;;;;5071915;28;20283;-56
2022/07/22 11:19:37;;;;;;;5.50;2.67;;;25.40;99.90;;;;;;5072490;28;20254;-56
2022/07/22 11:22:07;;;;;;;3.20;2.90;;;25.60;99.90;;;;;;5072691;28;20815;-56
2022/07/22 11:24:36;;;;;;;6.40;2.80;;;25.80;99.90;;;;;;5072696;28;20569;-57
2022/07/22 11:27:05;;;;;;;3.57;2.30;;;26.10;99.90;;;;;;5069375;28;20709;-54
2022/07/22 11:29:37;;;;;;;4.93;2.53;;;26.10;99.90;;;;;;5071495;28;20296;-56
2022/07/22 11:32:07;;;;;;;4.80;2.40;;;25.80;99.90;;;;;;5063349;28;20215;-56
2022/07/22 11:34:37;;;;;;;6.47;3.00;;;25.60;99.90;;;;;;5072507;28;20196;-56
2022/07/22 11:37:06;;;;;;;6.13;2.77;;;24.90;99.90;;;;;;5072550;28;20199;-56
2022/07/22 11:39:35;;;;;;;5.23;2.87;;;24.70;99.90;;;;;;5072335;28;20210;-56
2022/07/22 11:42:04;;;;;;;4.00;2.60;;;24.80;99.90;;;;;;5067886;28;20253;-56
2022/07/22 11:44:34;;;;;;;4.93;2.47;;;24.90;99.90;;;;;;5093805;28;20222;-56
2022/07/22 11:47:05;;;;;;;7.70;2.30;;;25.20;99.90;;;;;;5063875;28;20224;-55
2022/07/22 11:49:35;;;;;;;3.23;2.50;;;25.50;99.90;;;;;;5065787;28;20261;-57
2022/07/22 11:52:04;;;;;;;3.07;2.37;;;25.60;99.90;;;;;;5089391;28;20224;-55
2022/07/22 11:54:33;;;;;;;4.40;2.73;;;25.50;99.90;;;;;;5074457;28;20329;-57
2022/07/22 11:57:02;;;;;;;4.40;2.50;;;25.20;99.90;;;;;;5076304;28;20220;-56
2022/07/22 11:59:31;;;;;;;3.80;2.30;;;25.30;99.90;;;;;;5062400;28;20196;-56
2022/07/22 12:02:02;;;;;;;2.97;2.27;;;25.50;99.90;;;;;;5067096;28;20272;-56
2022/07/22 12:04:34;;;;;;;4.73;2.60;;;25.60;99.90;;;;;;5075050;28;20291;-56
2022/07/22 12:07:04;;;;;;;3.23;2.50;;;25.40;99.90;;;;;;5079441;28;20251;-56
2022/07/22 12:09:36;;;;;;;4.70;2.20;;;25.20;99.90;;;;;;5068051;28;20200;-56
2022/07/22 12:12:06;;;;;;;4.07;2.47;;;25.20;99.90;;;;;;5069840;28;20285;-57
2022/07/22 12:14:35;;;;;;;4.27;2.43;;;25.20;99.90;;;;;;5074727;28;20207;-55
2022/07/22 12:17:06;;;;;;;2.80;2.60;;;24.90;99.90;;;;;;5071213;28;20205;-57
2022/07/22 12:19:37;;;;;;;3.27;2.50;;;25.00;99.90;;;;;;5072292;28;20282;-56
2022/07/22 12:22:07;;;;;;;6.80;2.80;;;25.00;99.90;;;;;;5074986;28;20271;-54
2022/07/22 12:24:37;;;;;;;2.87;2.47;;;24.90;99.90;;;;;;5074546;28;20275;-56
2022/07/22 12:27:06;;;;;;;9.33;2.40;;;25.20;99.90;;;;;;5062285;28;20655;-56
2022/07/22 12:29:44;;;;;;;3.83;2.90;;;25.30;99.90;;;;;;5068605;28;20223;-56
2022/07/22 12:32:17;;;;;;;3.00;2.40;;;25.30;99.90;;;;;;5098494;28;20236;-56
2022/07/22 12:34:48;;;;;;;4.13;2.50;;;25.50;99.90;;;;;;5068434;28;20191;-57
2022/07/22 12:37:19;;;;;;;4.60;2.47;;;25.50;99.90;;;;;;5067069;28;20201;-57
2022/07/22 12:39:55;;;;;;;3.00;2.70;;;25.30;99.90;;;;;;5069713;28;20201;-56
2022/07/22 12:42:24;;;;;;;4.10;2.70;;;25.30;99.90;;;;;;5075261;28;20270;-56
2022/07/22 12:45:01;;;;;;;3.00;2.80;;;25.40;99.90;;;;;;5072639;28;20295;-56
2022/07/22 12:47:44;;;;;;;6.13;3.00;;;25.30;99.90;;;;;;5073288;28;20214;-57
2022/07/22 12:50:23;;;;;;;4.10;2.90;;;25.30;99.90;;;;;;5058764;28;20784;-54
2022/07/22 12:52:53;;;;;;;5.33;2.97;;;25.20;99.90;;;;;;5075505;28;20245;-55
2022/07/22 12:55:43;;;;;;;4.67;3.30;;;25.10;99.90;;;;;;5107182;28;20662;-56
2022/07/22 12:58:13;;;;;;;7.07;3.13;;;25.20;99.90;;;;;;5065025;28;20689;-56
2022/07/22 13:00:44;;;;;;;5.20;2.93;;;25.20;99.90;;;;;;5075392;28;20202;-56
2022/07/22 13:03:13;;;;;;;6.30;3.10;;;24.90;99.90;;;;;;5065010;28;20218;-56
2022/07/22 13:05:43;;;;;;;4.77;3.03;;;24.70;99.90;;;;;;5071682;28;20192;-56